createdAt,value
2023-02-27T00:00:16.614Z,100835.53
2023-02-27T00:02:49.647Z,100838.88
2023-02-27T00:05:17.494Z,100841.09
2023-02-27T00:07:44.578Z,100831.06
2023-02-27T00:10:13.774Z,100838.84
2023-02-27T00:12:41.901Z,100832.28
2023-02-27T00:15:15.863Z,100837.88
2023-02-27T00:17:43.737Z,100834.50
2023-02-27T00:20:16.824Z,100830.97
2023-02-27T00:22:44.789Z,100828.84
2023-02-27T00:25:12.990Z,100834.44
2023-02-27T00:27:40.683Z,100826.97
2023-02-27T00:30:11.704Z,100841.25
2023-02-27T00:32:39.184Z,100831.56
2023-02-27T00:35:09.020Z,100844.88
2023-02-27T00:37:36.056Z,100836.91
2023-02-27T00:40:05.327Z,100854.88
2023-02-27T00:42:37.872Z,100856.25
2023-02-27T00:45:06.723Z,100853.28
2023-02-27T00:47:35.039Z,100847.34
2023-02-27T00:50:02.360Z,100857.56
2023-02-27T00:52:29.663Z,100868.09
2023-02-27T00:54:56.588Z,100869.63
2023-02-27T00:57:23.508Z,100864.59
2023-02-27T00:59:50.451Z,100857.88
2023-02-27T01:02:17.646Z,100862.69
2023-02-27T01:04:45.574Z,100857.44
2023-02-27T01:07:12.518Z,100863.19
2023-02-27T01:09:39.550Z,100863.66
2023-02-27T01:12:06.684Z,100865.91
2023-02-27T01:14:34.049Z,100864.19
2023-02-27T01:17:01.068Z,100860.53
2023-02-27T01:19:27.976Z,100862.31
2023-02-27T01:21:55.000Z,100876.88
2023-02-27T01:24:22.015Z,100862.63
2023-02-27T01:26:49.079Z,100874.38
2023-02-27T01:29:16.260Z,100872.69
2023-02-27T01:31:43.399Z,100870.84
2023-02-27T01:34:10.617Z,100869.06
2023-02-27T01:36:37.534Z,100869.59
2023-02-27T01:39:04.814Z,100882.41
2023-02-27T01:41:31.951Z,100873.13
2023-02-27T01:44:10.864Z,100863.53
2023-02-27T01:46:38.867Z,100859.88
2023-02-27T01:49:16.931Z,100865.84
2023-02-27T01:51:55.241Z,100870.50
2023-02-27T01:54:26.150Z,100870.72
2023-02-27T01:56:55.184Z,100868.28
2023-02-27T01:59:22.652Z,100878.69
2023-02-27T02:01:50.063Z,100878.56
2023-02-27T02:04:26.860Z,100871.69
2023-02-27T02:07:07.275Z,100866.22
2023-02-27T02:09:47.942Z,100868.34
2023-02-27T02:12:18.282Z,100871.97
2023-02-27T02:14:45.600Z,100861.47
2023-02-27T02:17:40.252Z,100871.50
2023-02-27T02:20:33.338Z,100881.44
2023-02-27T02:23:22.042Z,100891.09
2023-02-27T02:26:29.222Z,100888.25
2023-02-27T02:29:33.879Z,100900.97
2023-02-27T02:32:15.838Z,100901.28
2023-02-27T02:35:23.906Z,100907.53
2023-02-27T02:38:30.963Z,100892.34
2023-02-27T02:41:48.712Z,100894.63
2023-02-27T02:44:39.718Z,100898.28
2023-02-27T02:47:46.009Z,100894.69
2023-02-27T02:50:50.512Z,100886.28
2023-02-27T02:53:36.582Z,100900.13
2023-02-27T02:56:41.603Z,100902.34
2023-02-27T02:59:40.117Z,100900.19
2023-02-27T03:02:12.307Z,100902.69
2023-02-27T03:05:07.585Z,100901.75
2023-02-27T03:08:15.113Z,100899.50
2023-02-27T03:10:54.403Z,100895.19
2023-02-27T03:13:46.918Z,100886.72
2023-02-27T03:16:19.753Z,100893.94
2023-02-27T03:19:14.501Z,100900.22
2023-02-27T03:22:02.564Z,100890.72
2023-02-27T03:24:46.584Z,100893.88
2023-02-27T03:27:16.468Z,100898.34
2023-02-27T03:29:58.615Z,100892.41
2023-02-27T03:32:35.763Z,100902.69
2023-02-27T03:35:05.399Z,100901.16
2023-02-27T03:37:38.349Z,100904.50
2023-02-27T03:40:10.434Z,100907.47
2023-02-27T03:42:49.615Z,100914.84
2023-02-27T03:45:35.087Z,100917.19
2023-02-27T03:48:04.101Z,100919.94
2023-02-27T03:50:31.075Z,100915.41
2023-02-27T03:52:58.075Z,100922.59
2023-02-27T03:55:34.077Z,100926.34
2023-02-27T03:58:01.200Z,100923.91
2023-02-27T04:00:29.160Z,100923.03
2023-02-27T04:02:59.971Z,100933.41
2023-02-27T04:05:28.467Z,100929.53
2023-02-27T04:08:19.462Z,100931.00
2023-02-27T04:11:19.501Z,100929.09
2023-02-27T04:13:55.291Z,100934.88
2023-02-27T04:16:53.662Z,100953.41
2023-02-27T04:19:51.717Z,100979.53
2023-02-27T04:22:47.266Z,100993.50
2023-02-27T04:25:35.276Z,100989.00
2023-02-27T04:28:40.540Z,100998.00
2023-02-27T04:31:14.134Z,100990.94
2023-02-27T04:34:01.493Z,100994.22
2023-02-27T04:36:37.237Z,100986.69
2023-02-27T04:39:32.167Z,100984.84
2023-02-27T04:42:05.414Z,100973.63
2023-02-27T04:44:36.191Z,100967.41
2023-02-27T04:47:07.530Z,100962.81
2023-02-27T04:50:01.221Z,100955.69
2023-02-27T04:52:35.984Z,100955.03
2023-02-27T04:55:25.432Z,100945.06
2023-02-27T04:58:25.226Z,100958.19
2023-02-27T05:01:03.867Z,100960.69
2023-02-27T05:03:40.943Z,100967.84
2023-02-27T05:06:10.918Z,100977.63
2023-02-27T05:08:57.836Z,100988.16
2023-02-27T05:11:43.166Z,101001.72
2023-02-27T05:14:28.565Z,100994.16
2023-02-27T05:17:09.893Z,100975.63
2023-02-27T05:19:41.525Z,100966.19
2023-02-27T05:22:46.862Z,100959.19
2023-02-27T05:25:21.365Z,100952.28
2023-02-27T05:28:07.205Z,100952.38
2023-02-27T05:30:59.384Z,100957.47
2023-02-27T05:33:35.870Z,100953.22
2023-02-27T05:36:31.550Z,100957.22
2023-02-27T05:39:07.232Z,100953.94
2023-02-27T05:41:58.393Z,100950.41
2023-02-27T05:44:34.987Z,100947.75
2023-02-27T05:47:11.072Z,100954.81
2023-02-27T05:50:07.116Z,100956.13
2023-02-27T05:52:36.589Z,100957.81
2023-02-27T05:55:43.079Z,100952.22
2023-02-27T05:58:18.823Z,100955.44
2023-02-27T06:01:00.780Z,100956.59
2023-02-27T06:03:30.090Z,100952.69
2023-02-27T06:05:59.938Z,100951.75
2023-02-27T06:08:27.711Z,100950.72
2023-02-27T06:10:58.697Z,100957.31
2023-02-27T06:13:26.398Z,100954.47
2023-02-27T06:15:54.940Z,100956.19
2023-02-27T06:18:23.716Z,100951.19
2023-02-27T06:20:50.888Z,100956.44
2023-02-27T06:23:18.343Z,100965.75
2023-02-27T06:25:45.636Z,100955.50
2023-02-27T06:28:12.595Z,100964.16
2023-02-27T06:30:39.652Z,100966.25
2023-02-27T06:33:12.335Z,100968.44
2023-02-27T06:35:39.478Z,100961.28
2023-02-27T06:38:06.426Z,100966.91
2023-02-27T06:40:34.383Z,100966.84
2023-02-27T06:43:01.486Z,100965.00
2023-02-27T06:45:28.484Z,100966.00
2023-02-27T06:47:55.536Z,100965.59
2023-02-27T06:50:22.539Z,100965.34
2023-02-27T06:52:50.520Z,100956.13
2023-02-27T06:55:20.755Z,100964.34
2023-02-27T06:57:53.120Z,100977.81
2023-02-27T07:00:20.739Z,100974.44
2023-02-27T07:02:47.792Z,100986.13
2023-02-27T07:05:14.826Z,100982.63
2023-02-27T07:07:41.889Z,100984.25
2023-02-27T07:10:12.813Z,100977.28
2023-02-27T07:12:40.571Z,100977.72
2023-02-27T07:15:09.137Z,100985.03
2023-02-27T07:17:37.865Z,100992.78
2023-02-27T07:20:08.184Z,100991.69
2023-02-27T07:22:35.305Z,101003.59
2023-02-27T07:25:02.590Z,100992.13
2023-02-27T07:27:29.703Z,100997.88
2023-02-27T07:29:56.778Z,100996.22
2023-02-27T07:32:23.886Z,100995.28
2023-02-27T07:34:50.898Z,101001.81
2023-02-27T07:37:18.170Z,100994.69
2023-02-27T07:39:46.141Z,100997.16
2023-02-27T07:42:13.220Z,101002.91
2023-02-27T07:44:40.704Z,101002.78
2023-02-27T07:47:07.645Z,101006.94
2023-02-27T07:49:34.591Z,101016.78
2023-02-27T07:52:01.572Z,101004.63
2023-02-27T07:54:28.653Z,101009.41
2023-02-27T07:56:55.624Z,101004.63
2023-02-27T07:59:22.513Z,100995.75
2023-02-27T08:01:49.436Z,100999.84
2023-02-27T08:04:16.479Z,100998.66
2023-02-27T08:06:43.431Z,100988.78
2023-02-27T08:09:10.870Z,100986.94
2023-02-27T08:11:37.929Z,101000.16
2023-02-27T08:14:04.871Z,100998.78
2023-02-27T08:16:32.536Z,100995.84
2023-02-27T08:19:01.075Z,100997.13
2023-02-27T08:21:29.170Z,100992.13
2023-02-27T08:23:57.650Z,100980.06
2023-02-27T08:26:24.729Z,100972.66
2023-02-27T08:28:52.087Z,100958.63
2023-02-27T08:31:19.228Z,100947.78
2023-02-27T08:33:49.489Z,100945.59
2023-02-27T08:36:16.570Z,100931.44
2023-02-27T08:38:43.623Z,100940.38
2023-02-27T08:41:10.772Z,100924.16
2023-02-27T08:43:37.833Z,100921.03
2023-02-27T08:46:05.181Z,100922.09
2023-02-27T08:48:32.156Z,100928.47
2023-02-27T08:50:59.101Z,100919.69
2023-02-27T08:53:26.222Z,100927.41
2023-02-27T08:55:53.440Z,100920.88
2023-02-27T08:58:20.621Z,100921.06
2023-02-27T09:00:47.845Z,100916.25
2023-02-27T09:03:15.063Z,100918.16
2023-02-27T09:05:43.021Z,100910.06
2023-02-27T09:08:10.279Z,100903.34
2023-02-27T09:10:37.391Z,100911.97
2023-02-27T09:13:04.525Z,100907.06
2023-02-27T09:15:32.950Z,100918.69
2023-02-27T09:18:05.430Z,100913.25
2023-02-27T09:20:36.137Z,100905.41
2023-02-27T09:23:04.433Z,100912.81
2023-02-27T09:25:31.557Z,100902.06
2023-02-27T09:27:59.334Z,100874.16
2023-02-27T09:30:26.920Z,100885.31
2023-02-27T09:32:53.839Z,100868.41
2023-02-27T09:35:21.085Z,100872.22
2023-02-27T09:37:49.630Z,100868.00
2023-02-27T09:40:30.960Z,100867.34
2023-02-27T09:43:04.732Z,100856.44
2023-02-27T09:45:36.519Z,100855.59
2023-02-27T09:48:21.714Z,100854.59
2023-02-27T09:50:52.525Z,100877.19
2023-02-27T09:53:31.276Z,100871.22
2023-02-27T09:56:14.104Z,100867.66
2023-02-27T09:59:16.244Z,100867.41
2023-02-27T10:02:08.877Z,100856.00
2023-02-27T10:04:54.469Z,100847.22
2023-02-27T10:07:39.402Z,100847.38
2023-02-27T10:10:25.141Z,100838.66
2023-02-27T10:13:16.655Z,100842.56
2023-02-27T10:15:50.328Z,100840.75
2023-02-27T10:18:34.253Z,100829.81
2023-02-27T10:21:14.372Z,100844.91
2023-02-27T10:23:54.223Z,100819.03
2023-02-27T10:26:30.185Z,100845.72
2023-02-27T10:29:23.021Z,100851.50
2023-02-27T10:32:05.477Z,100860.31
2023-02-27T10:34:34.361Z,100858.31
2023-02-27T10:37:04.024Z,100845.38
2023-02-27T10:39:48.390Z,100850.19
2023-02-27T10:42:18.393Z,100861.94
2023-02-27T10:44:47.128Z,100843.50
2023-02-27T10:47:18.445Z,100865.00
2023-02-27T10:49:47.237Z,100850.44
2023-02-27T10:52:17.675Z,100846.06
2023-02-27T10:54:46.338Z,100839.16
2023-02-27T10:57:33.622Z,100828.38
2023-02-27T11:00:07.192Z,100824.81
2023-02-27T11:02:43.924Z,100816.59
2023-02-27T11:05:26.751Z,100821.50
2023-02-27T11:07:56.979Z,100794.75
2023-02-27T11:10:27.899Z,100812.13
2023-02-27T11:13:05.319Z,100832.66
2023-02-27T11:15:36.717Z,100808.19
2023-02-27T11:18:24.295Z,100813.53
2023-02-27T11:20:52.881Z,100818.59
2023-02-27T11:23:24.616Z,100833.34
2023-02-27T11:26:10.406Z,100811.72
2023-02-27T11:28:38.496Z,100805.06
2023-02-27T11:31:26.743Z,100787.34
2023-02-27T11:33:56.997Z,100793.22
2023-02-27T11:36:43.873Z,100779.16
2023-02-27T11:39:24.142Z,100774.66
2023-02-27T11:41:51.861Z,100774.09
2023-02-27T11:44:49.774Z,100770.69
2023-02-27T11:47:16.665Z,100774.63
2023-02-27T11:50:06.941Z,100784.66
2023-02-27T11:52:49.206Z,100770.03
2023-02-27T11:55:21.058Z,100777.41
2023-02-27T11:57:54.625Z,100775.66
2023-02-27T12:00:33.076Z,100777.78
2023-02-27T12:03:33.933Z,100765.06
2023-02-27T12:06:04.909Z,100759.66
2023-02-27T12:09:04.744Z,100766.47
2023-02-27T12:11:44.468Z,100760.28
2023-02-27T12:14:18.439Z,100744.75
2023-02-27T12:16:51.070Z,100759.75
2023-02-27T12:19:30.256Z,100771.34
2023-02-27T12:22:37.417Z,100778.22
2023-02-27T12:25:39.948Z,100754.53
2023-02-27T12:28:15.573Z,100771.09
2023-02-27T12:31:28.462Z,100758.09
2023-02-27T12:34:01.699Z,100759.94
2023-02-27T12:36:28.669Z,100752.41
2023-02-27T12:38:55.703Z,100754.63
2023-02-27T12:41:42.283Z,100751.75
2023-02-27T12:44:28.365Z,100753.13
2023-02-27T12:47:33.446Z,100750.28
2023-02-27T12:50:26.805Z,100755.44
2023-02-27T12:53:10.045Z,100744.41
2023-02-27T12:55:56.243Z,100747.72
2023-02-27T12:58:56.909Z,100755.69
2023-02-27T13:01:39.616Z,100737.84
2023-02-27T13:04:44.514Z,100748.78
2023-02-27T13:07:49.129Z,100742.91
2023-02-27T13:10:24.923Z,100740.22
2023-02-27T13:13:14.315Z,100741.00
2023-02-27T13:15:51.517Z,100738.56
2023-02-27T13:18:48.294Z,100741.16
2023-02-27T13:21:53.720Z,100752.94
2023-02-27T13:24:24.170Z,100760.56
2023-02-27T13:27:06.877Z,100755.94
2023-02-27T13:29:47.799Z,100744.84
2023-02-27T13:32:42.705Z,100759.34
2023-02-27T13:35:22.813Z,100738.34
2023-02-27T13:37:53.216Z,100742.38
2023-02-27T13:40:36.378Z,100748.16
2023-02-27T13:43:06.574Z,100756.91
2023-02-27T13:45:51.654Z,100746.22
2023-02-27T13:48:42.988Z,100737.50
2023-02-27T13:51:37.459Z,100737.31
2023-02-27T13:54:13.458Z,100729.94
2023-02-27T13:56:49.230Z,100737.84
2023-02-27T13:59:39.640Z,100741.66
2023-02-27T14:02:12.915Z,100735.75
2023-02-27T14:04:55.361Z,100751.13
2023-02-27T14:07:30.183Z,100746.38
2023-02-27T14:10:11.468Z,100746.88
2023-02-27T14:12:45.759Z,100754.22
2023-02-27T14:15:53.549Z,100755.16
2023-02-27T14:19:02.376Z,100758.22
2023-02-27T14:22:22.474Z,100768.94
2023-02-27T14:25:05.406Z,100757.72
2023-02-27T14:27:54.681Z,100763.50
2023-02-27T14:30:29.318Z,100747.41
2023-02-27T14:33:39.203Z,100757.28
2023-02-27T14:36:15.865Z,100756.63
2023-02-27T14:38:43.327Z,100748.81
2023-02-27T14:41:35.257Z,100759.75
2023-02-27T14:44:02.992Z,100747.34
2023-02-27T14:46:39.660Z,100752.19
2023-02-27T14:49:19.293Z,100745.41
2023-02-27T14:51:46.547Z,100748.16
2023-02-27T14:54:20.933Z,100757.00
2023-02-27T14:57:00.766Z,100743.38
2023-02-27T14:59:42.558Z,100744.66
2023-02-27T15:02:26.830Z,100760.03
2023-02-27T15:05:15.878Z,100749.19
2023-02-27T15:07:47.830Z,100756.28
2023-02-27T15:10:25.113Z,100760.09
2023-02-27T15:12:53.122Z,100764.47
2023-02-27T15:15:21.952Z,100765.13
2023-02-27T15:17:53.781Z,100766.06
2023-02-27T15:20:29.740Z,100783.16
2023-02-27T15:23:02.328Z,100778.13
2023-02-27T15:25:39.734Z,100785.16
2023-02-27T15:28:23.305Z,100782.44
2023-02-27T15:30:53.097Z,100789.97
2023-02-27T15:33:29.727Z,100792.28
2023-02-27T15:35:57.806Z,100781.09
2023-02-27T15:38:34.883Z,100781.28
2023-02-27T15:41:04.188Z,100792.84
2023-02-27T15:43:32.058Z,100783.19
2023-02-27T15:45:59.333Z,100791.72
2023-02-27T15:48:26.624Z,100784.00
2023-02-27T15:50:59.303Z,100776.56
2023-02-27T15:53:29.929Z,100790.81
2023-02-27T15:56:01.398Z,100795.47
2023-02-27T15:58:31.456Z,100779.22
2023-02-27T16:01:08.901Z,100804.38
2023-02-27T16:03:44.554Z,100806.72
2023-02-27T16:06:34.383Z,100811.25
2023-02-27T16:09:19.127Z,100808.69
2023-02-27T16:11:46.202Z,100812.59
2023-02-27T16:14:42.204Z,100827.56
2023-02-27T16:17:30.606Z,100833.56
2023-02-27T16:20:04.225Z,100829.13
2023-02-27T16:22:31.094Z,100839.19
2023-02-27T16:25:10.928Z,100837.34
2023-02-27T16:27:39.380Z,100843.91
2023-02-27T16:30:12.059Z,100831.38
2023-02-27T16:32:46.638Z,100843.06
2023-02-27T16:35:23.162Z,100845.72
2023-02-27T16:37:51.415Z,100851.16
2023-02-27T16:40:25.193Z,100863.28
2023-02-27T16:42:54.284Z,100867.38
2023-02-27T16:45:27.912Z,100865.09
2023-02-27T16:47:58.605Z,100875.66
2023-02-27T16:50:32.351Z,100876.56
2023-02-27T16:52:59.929Z,100878.78
2023-02-27T16:55:29.158Z,100876.88
2023-02-27T16:57:57.085Z,100877.22
2023-02-27T17:00:24.294Z,100890.09
2023-02-27T17:02:52.318Z,100892.59
2023-02-27T17:05:19.303Z,100884.22
2023-02-27T17:07:46.599Z,100886.63
2023-02-27T17:10:22.030Z,100894.75
2023-02-27T17:12:48.919Z,100903.28
2023-02-27T17:15:17.266Z,100903.44
2023-02-27T17:17:46.037Z,100907.59
2023-02-27T17:20:14.779Z,100908.19
2023-02-27T17:22:44.570Z,100915.59
2023-02-27T17:25:13.070Z,100910.44
2023-02-27T17:27:43.811Z,100917.88
2023-02-27T17:30:12.152Z,100920.94
2023-02-27T17:32:39.163Z,100930.94
2023-02-27T17:35:07.094Z,100935.91
2023-02-27T17:37:34.308Z,100933.09
2023-02-27T17:40:04.517Z,100937.25
2023-02-27T17:42:35.691Z,100932.44
2023-02-27T17:45:05.586Z,100940.13
2023-02-27T17:47:33.920Z,100936.41
2023-02-27T17:50:00.987Z,100936.88
2023-02-27T17:52:27.904Z,100950.31
2023-02-27T17:54:55.587Z,100948.66
2023-02-27T17:57:22.493Z,100954.63
2023-02-27T17:59:49.377Z,100955.84
2023-02-27T18:02:16.331Z,100960.69
2023-02-27T18:04:43.466Z,100972.91
2023-02-27T18:07:10.510Z,100965.06
2023-02-27T18:09:37.477Z,100974.34
2023-02-27T18:12:04.483Z,100977.50
2023-02-27T18:14:31.449Z,100974.41
2023-02-27T18:16:58.350Z,100978.13
2023-02-27T18:19:25.426Z,100978.25
2023-02-27T18:21:52.340Z,100978.13
2023-02-27T18:24:19.301Z,100978.81
2023-02-27T18:26:46.302Z,100981.72
2023-02-27T18:29:14.072Z,100982.56
2023-02-27T18:31:45.951Z,100977.75
2023-02-27T18:34:13.974Z,100973.94
2023-02-27T18:36:40.862Z,100975.41
2023-02-27T18:39:08.619Z,100971.84
2023-02-27T18:41:36.788Z,100975.78
2023-02-27T18:44:05.437Z,100981.66
2023-02-27T18:46:33.339Z,100977.91
2023-02-27T18:49:02.489Z,100978.81
2023-02-27T18:51:30.162Z,100967.31
2023-02-27T18:54:00.821Z,100973.50
2023-02-27T18:56:30.636Z,100972.84
2023-02-27T18:59:02.004Z,100977.97
2023-02-27T19:01:34.682Z,100975.00
2023-02-27T19:04:04.793Z,100972.00
2023-02-27T19:06:35.101Z,100969.28
2023-02-27T19:09:05.693Z,100971.38
2023-02-27T19:11:33.490Z,100971.38
2023-02-27T19:14:07.542Z,100973.84
2023-02-27T19:16:35.083Z,100971.28
2023-02-27T19:19:04.780Z,100974.19
2023-02-27T19:21:32.682Z,100964.41
2023-02-27T19:24:00.216Z,100964.53
2023-02-27T19:26:27.723Z,100978.31
2023-02-27T19:28:56.912Z,100975.19
2023-02-27T19:31:25.115Z,100966.56
2023-02-27T19:33:53.253Z,100968.94
2023-02-27T19:36:24.841Z,100981.03
2023-02-27T19:38:53.013Z,100966.88
2023-02-27T19:41:21.485Z,100977.28
2023-02-27T19:43:50.233Z,100985.25
2023-02-27T19:46:24.945Z,100972.50
2023-02-27T19:48:54.091Z,100985.56
2023-02-27T19:51:21.387Z,100985.81
2023-02-27T19:53:48.773Z,100981.06
2023-02-27T19:56:22.260Z,100988.75
2023-02-27T19:58:49.790Z,100998.38
2023-02-27T20:01:31.682Z,101000.09
2023-02-27T20:04:00.472Z,100997.19
2023-02-27T20:06:31.654Z,101008.66
2023-02-27T20:08:59.876Z,101010.84
2023-02-27T20:11:31.515Z,101014.25
2023-02-27T20:13:59.115Z,101010.03
2023-02-27T20:16:28.955Z,101025.88
2023-02-27T20:18:56.880Z,101017.19
2023-02-27T20:21:26.722Z,101027.59
2023-02-27T20:23:54.676Z,101023.38
2023-02-27T20:26:35.428Z,101034.69
2023-02-27T20:29:14.377Z,101026.31
2023-02-27T20:31:45.115Z,101036.63
2023-02-27T20:34:15.844Z,101032.34
2023-02-27T20:36:44.294Z,101030.81
2023-02-27T20:39:12.777Z,101030.69
2023-02-27T20:41:40.355Z,101040.34
2023-02-27T20:44:08.577Z,101040.88
2023-02-27T20:46:36.536Z,101045.19
2023-02-27T20:49:05.224Z,101042.75
2023-02-27T20:51:37.987Z,101044.41
2023-02-27T20:54:11.720Z,101042.94
2023-02-27T20:56:41.484Z,101042.09
2023-02-27T20:59:14.040Z,101050.41
2023-02-27T21:01:51.056Z,101056.91
2023-02-27T21:04:45.779Z,101049.59
2023-02-27T21:07:23.837Z,101055.94
2023-02-27T21:09:51.118Z,101066.81
2023-02-27T21:12:18.301Z,101051.03
2023-02-27T21:14:45.300Z,101061.84
2023-02-27T21:17:12.475Z,101064.69
2023-02-27T21:19:39.912Z,101067.63
2023-02-27T21:22:10.860Z,101080.97
2023-02-27T21:24:38.166Z,101078.84
2023-02-27T21:27:05.627Z,101072.00
2023-02-27T21:29:33.146Z,101071.09
2023-02-27T21:32:00.983Z,101078.16
2023-02-27T21:34:28.804Z,101069.81
2023-02-27T21:36:56.520Z,101078.41
2023-02-27T21:39:27.030Z,101080.19
2023-02-27T21:41:54.962Z,101081.63
2023-02-27T21:44:26.717Z,101086.09
2023-02-27T21:46:54.705Z,101091.47
2023-02-27T21:49:27.943Z,101082.94
2023-02-27T21:51:55.300Z,101090.97
2023-02-27T21:54:22.386Z,101100.19
2023-02-27T21:56:49.961Z,101103.28
2023-02-27T21:59:18.856Z,101094.31
2023-02-27T22:01:47.588Z,101098.66
2023-02-27T22:04:17.180Z,101099.16
2023-02-27T22:06:44.872Z,101099.75
2023-02-27T22:09:12.414Z,101106.53
2023-02-27T22:11:40.978Z,101116.06
2023-02-27T22:14:09.294Z,101113.25
2023-02-27T22:16:36.581Z,101096.44
2023-02-27T22:19:12.213Z,101100.66
2023-02-27T22:21:40.506Z,101106.25
2023-02-27T22:24:08.180Z,101104.16
2023-02-27T22:26:35.689Z,101108.84
2023-02-27T22:29:03.866Z,101111.31
2023-02-27T22:31:34.357Z,101107.84
2023-02-27T22:34:17.948Z,101111.38
2023-02-27T22:36:48.511Z,101110.47
2023-02-27T22:39:15.409Z,101104.94
2023-02-27T22:41:42.978Z,101124.09
2023-02-27T22:44:14.396Z,101110.75
2023-02-27T22:46:48.340Z,101115.69
2023-02-27T22:49:23.175Z,101115.50
2023-02-27T22:51:52.147Z,101115.69
2023-02-27T22:54:22.558Z,101121.63
2023-02-27T22:56:52.483Z,101109.97
2023-02-27T22:59:20.412Z,101124.25
2023-02-27T23:01:48.520Z,101110.50
2023-02-27T23:04:17.133Z,101121.88
2023-02-27T23:06:45.013Z,101120.09
2023-02-27T23:09:21.253Z,101125.78
2023-02-27T23:11:49.223Z,101119.22
2023-02-27T23:14:17.194Z,101131.28
2023-02-27T23:16:45.715Z,101137.72
2023-02-27T23:19:17.549Z,101132.97
2023-02-27T23:21:44.872Z,101135.22
2023-02-27T23:24:15.822Z,101141.94
2023-02-27T23:26:46.947Z,101139.25
2023-02-27T23:29:14.279Z,101139.00
2023-02-27T23:31:42.373Z,101146.41
2023-02-27T23:34:10.117Z,101134.63
2023-02-27T23:36:38.799Z,101131.91
2023-02-27T23:39:07.121Z,101135.84
2023-02-27T23:41:34.401Z,101126.63
2023-02-27T23:44:20.258Z,101129.78
2023-02-27T23:46:47.261Z,101125.91
2023-02-27T23:49:14.272Z,101128.59
2023-02-27T23:51:41.374Z,101124.78
2023-02-27T23:54:10.499Z,101131.09
2023-02-27T23:56:37.597Z,101128.22
2023-02-27T23:59:07.208Z,101117.53
